Time;durP1;ratioP1;P1;durP2;ratioP2;P2;SDS_P1;SDS_P2;PMS_P1;PMS_P2;Temp;Humidity;BMP_temperature;BMP_pressure;BME280_temperature;BME280_humidity;BME280_pressure;Samples;Min_cycle;Max_cycle;Signal;HPM_P1;HPM_P2
2023/04/16 00:00:20;;;;;;;50.80;27.30;;;;;;;-144.73;100.00;54473.38;5021638;28;20064;-72
2023/04/16 00:02:46;;;;;;;55.13;27.63;;;;;;;-144.73;100.00;54456.97;5024074;28;20041;-71
2023/04/16 00:05:13;;;;;;;53.90;26.58;;;;;;;-144.73;100.00;54487.75;4997923;28;20061;-72
2023/04/16 00:07:38;;;;;;;58.72;27.30;;;;;;;-144.73;100.00;54510.31;5016770;28;20080;-71
2023/04/16 00:10:04;;;;;;;49.78;26.13;;;;;;;-144.73;100.00;54487.75;5011459;28;20033;-71
2023/04/16 00:12:30;;;;;;;48.15;26.30;;;;;;;-144.73;100.00;54518.53;5012692;28;20029;-72
2023/04/16 00:14:55;;;;;;;49.55;26.95;;;;;;;-144.73;100.00;54493.91;4994723;28;20040;-71
2023/04/16 00:17:23;;;;;;;51.40;24.48;;;;;;;-144.73;100.00;54481.59;4994232;28;20528;-71
2023/04/16 00:19:49;;;;;;;44.95;25.83;;;;;;;-144.73;100.00;54498.00;5009797;28;20086;-71
2023/04/16 00:22:14;;;;;;;54.03;26.38;;;;;;;-144.73;100.00;54539.06;5008893;28;20084;-71
2023/04/16 00:24:40;;;;;;;57.65;24.65;;;;;;;-144.73;100.00;54520.59;5002368;28;20033;-72
2023/04/16 00:27:06;;;;;;;45.80;24.48;;;;;;;-144.73;100.00;54520.59;5011382;28;20061;-71
2023/04/16 00:29:32;;;;;;;52.92;26.45;;;;;;;-144.73;100.00;54493.91;4997088;28;20057;-71
2023/04/16 00:31:58;;;;;;;46.45;24.75;;;;;;;-144.73;100.00;54465.16;4993180;28;20026;-71
2023/04/16 00:34:23;;;;;;;52.38;26.85;;;;;;;-144.73;100.00;54539.06;4994941;28;20026;-71
2023/04/16 00:36:48;;;;;;;51.70;24.30;;;;;;;-144.73;100.00;54510.31;5016500;28;20043;-71
2023/04/16 00:39:14;;;;;;;56.10;26.63;;;;;;;-144.73;100.00;54518.53;5002951;28;20033;-71
2023/04/16 00:41:41;;;;;;;51.17;24.77;;;;;;;-144.73;100.00;54498.00;5000200;28;20038;-71
2023/04/16 00:44:07;;;;;;;52.13;24.27;;;;;;;-144.73;100.00;54477.47;5020877;28;20025;-72
2023/04/16 00:46:33;;;;;;;47.72;24.98;;;;;;;-144.73;100.00;54514.44;5001981;28;20030;-71
2023/04/16 00:49:00;;;;;;;50.53;25.05;;;;;;;-144.73;100.00;54508.28;5018601;28;20026;-71
2023/04/16 00:51:25;;;;;;;49.15;25.35;;;;;;;-144.73;100.00;54508.28;5010514;28;20120;-70
2023/04/16 00:53:51;;;;;;;42.45;23.17;;;;;;;-144.73;100.00;54485.69;5021518;28;20105;-70
2023/04/16 00:56:17;;;;;;;45.05;23.98;;;;;;;-144.73;100.00;54485.69;5008207;28;20044;-70
2023/04/16 00:58:42;;;;;;;51.58;23.67;;;;;;;-144.73;100.00;54487.75;5006374;28;20026;-71
2023/04/16 01:01:07;;;;;;;48.17;23.80;;;;;;;-144.73;100.00;54502.13;5006430;28;20511;-70
2023/04/16 01:03:38;;;;;;;44.67;22.98;;;;;;;-144.73;100.00;54491.84;4999082;28;20032;-71
2023/04/16 01:06:05;;;;;;;40.30;23.40;;;;;;;-144.73;100.00;54514.44;4999397;28;20030;-71
2023/04/16 01:08:31;;;;;;;51.55;24.08;;;;;;;-144.73;100.00;54500.06;5010054;28;20268;-71
2023/04/16 01:10:56;;;;;;;43.67;24.25;;;;;;;-144.73;100.00;54485.69;4989028;28;20572;-71
2023/04/16 01:13:21;;;;;;;42.17;22.15;;;;;;;-144.73;100.00;54514.44;5020432;28;20108;-71
2023/04/16 01:15:47;;;;;;;41.97;22.95;;;;;;;-144.73;100.00;54465.16;4998577;28;20124;-71
2023/04/16 01:18:16;;;;;;;40.20;22.10;;;;;;;-144.73;100.00;54561.63;5000813;28;20388;-71
2023/04/16 01:20:42;;;;;;;42.05;21.65;;;;;;;-144.73;100.00;54498.00;5005299;28;20045;-71
2023/04/16 01:23:07;;;;;;;43.85;21.80;;;;;;;-144.73;100.00;54481.59;5016601;28;20017;-70
2023/04/16 01:25:33;;;;;;;45.75;21.30;;;;;;;-144.73;100.00;54498.00;4994592;28;20124;-70
2023/04/16 01:27:58;;;;;;;40.45;21.20;;;;;;;-144.73;100.00;54518.53;4993295;28;20026;-71
2023/04/16 01:30:24;;;;;;;52.42;21.90;;;;;;;-144.73;100.00;54518.53;4986337;28;20065;-71
2023/04/16 01:32:50;;;;;;;37.47;19.90;;;;;;;-144.73;100.00;54510.31;5017506;28;20022;-70
2023/04/16 01:35:17;;;;;;;40.80;21.63;;;;;;;-144.73;100.00;54498.00;5023352;28;20041;-70
2023/04/16 01:37:42;;;;;;;36.30;21.20;;;;;;;-144.73;100.00;54487.75;4996655;28;20033;-71
2023/04/16 01:40:09;;;;;;;41.78;20.13;;;;;;;-144.73;100.00;54506.22;4990321;28;20050;-70
2023/04/16 01:42:34;;;;;;;41.63;19.65;;;;;;;-144.73;100.00;54502.13;5011352;28;20033;-70
2023/04/16 01:45:00;;;;;;;37.28;18.80;;;;;;;-144.73;100.00;54502.13;4992789;28;20091;-70
2023/04/16 01:47:25;;;;;;;35.97;19.92;;;;;;;-144.73;100.00;54518.53;4994779;28;20013;-71
2023/04/16 01:49:50;;;;;;;39.00;22.08;;;;;;;-144.73;100.00;54530.84;5015023;28;20017;-70
2023/04/16 01:52:16;;;;;;;34.15;19.42;;;;;;;-144.73;100.00;54551.38;5020265;28;20121;-71
2023/04/16 01:54:41;;;;;;;39.83;18.42;;;;;;;-144.73;100.00;54481.59;5005813;28;20457;-70
2023/04/16 01:57:07;;;;;;;38.97;19.92;;;;;;;-144.73;100.00;54483.66;5019103;28;20036;-71
2023/04/16 01:59:32;;;;;;;40.80;19.83;;;;;;;-144.73;100.00;54506.22;4993978;28;20030;-71
2023/04/16 02:02:07;;;;;;;31.92;19.75;;;;;;;-144.73;100.00;54502.13;5013446;28;20034;-71
2023/04/16 02:04:33;;;;;;;33.75;19.38;;;;;;;-144.73;100.00;54510.31;5006371;28;20040;-71
2023/04/16 02:06:58;;;;;;;35.47;18.95;;;;;;;-144.73;100.00;54498.00;5015623;28;20034;-72
2023/04/16 02:09:23;;;;;;;29.85;17.55;;;;;;;-144.73;100.00;54481.59;4998893;28;20018;-72
2023/04/16 02:11:49;;;;;;;33.70;19.58;;;;;;;-144.73;100.00;54502.13;4997548;28;20034;-72
2023/04/16 02:14:14;;;;;;;35.38;19.27;;;;;;;-144.73;100.00;54498.00;5013494;28;20053;-71
2023/04/16 02:16:39;;;;;;;31.05;18.15;;;;;;;-144.73;100.00;54518.53;5020276;28;20119;-71
2023/04/16 02:19:05;;;;;;;38.75;18.50;;;;;;;-144.73;100.00;54473.38;4999042;28;20018;-72
2023/04/16 02:21:30;;;;;;;36.47;19.90;;;;;;;-144.73;100.00;54506.22;5000505;28;20030;-71
2023/04/16 02:23:56;;;;;;;36.22;20.00;;;;;;;-144.73;100.00;54518.53;5008700;28;20137;-71
2023/04/16 02:26:21;;;;;;;37.10;19.25;;;;;;;-144.73;100.00;54485.69;4995454;28;20034;-72
2023/04/16 02:28:47;;;;;;;34.28;18.70;;;;;;;-144.73;100.00;54545.22;5002548;28;20022;-71
2023/04/16 02:31:12;;;;;;;44.90;20.88;;;;;;;-144.73;100.00;54530.84;5009597;28;20030;-71
2023/04/16 02:33:37;;;;;;;42.75;20.60;;;;;;;-144.73;100.00;54477.47;5016660;28;20531;-71
2023/04/16 02:36:03;;;;;;;37.45;19.98;;;;;;;-144.73;100.00;54502.13;5007099;28;20033;-71
2023/04/16 02:38:28;;;;;;;36.70;21.38;;;;;;;-144.73;100.00;54489.81;4995490;28;20030;-71
2023/04/16 02:40:54;;;;;;;38.70;21.77;;;;;;;-144.73;100.00;54481.59;5023259;28;20022;-71
2023/04/16 02:43:19;;;;;;;37.70;19.73;;;;;;;-144.73;100.00;54452.84;5013490;28;20020;-71
2023/04/16 02:45:44;;;;;;;38.78;20.30;;;;;;;-144.73;100.00;54498.00;5024986;28;20080;-72
2023/04/16 02:48:10;;;;;;;38.83;19.83;;;;;;;-144.73;100.00;54493.91;5010262;28;20043;-71
2023/04/16 02:50:35;;;;;;;42.78;20.95;;;;;;;-144.73;100.00;54514.44;5027726;28;20056;-72
2023/04/16 02:53:00;;;;;;;36.55;21.05;;;;;;;-144.73;100.00;54551.38;5001607;28;20037;-71
2023/04/16 02:55:28;;;;;;;35.72;18.92;;;;;;;-144.73;100.00;54543.16;4997793;28;20493;-71
2023/04/16 02:57:53;;;;;;;40.72;21.70;;;;;;;-144.73;100.00;54459.00;5000218;28;20477;-71
2023/04/16 03:00:19;;;;;;;39.45;20.73;;;;;;;-144.73;100.00;54489.81;5001136;28;20087;-72
2023/04/16 03:02:44;;;;;;;34.53;20.52;;;;;;;-144.73;100.00;54518.53;4995763;28;20493;-72
2023/04/16 03:05:11;;;;;;;36.78;19.58;;;;;;;-144.73;100.00;54498.00;5020924;28;20034;-73
2023/04/16 03:07:38;;;;;;;38.30;18.20;;;;;;;-144.73;100.00;54502.13;5007787;28;20152;-71
2023/04/16 03:10:04;;;;;;;40.13;20.35;;;;;;;-144.73;100.00;54510.31;5016326;28;20034;-71
2023/04/16 03:12:30;;;;;;;40.05;21.65;;;;;;;-144.73;100.00;54481.59;5015069;28;20048;-71
2023/04/16 03:14:55;;;;;;;35.78;20.35;;;;;;;-144.73;100.00;54461.06;5016782;28;20021;-71
2023/04/16 03:17:21;;;;;;;36.60;19.80;;;;;;;-144.73;100.00;54510.31;5007830;28;20025;-71
2023/04/16 03:19:46;;;;;;;36.65;19.42;;;;;;;-144.73;100.00;54481.59;5021493;28;20045;-71
2023/04/16 03:22:12;;;;;;;39.58;21.02;;;;;;;-144.73;100.00;54489.81;5024012;28;20017;-71
2023/04/16 03:24:37;;;;;;;39.80;19.98;;;;;;;-144.73;100.00;54516.47;5002061;28;20058;-72
2023/04/16 03:27:02;;;;;;;35.13;19.42;;;;;;;-144.73;100.00;54456.97;5000795;28;20030;-72
2023/04/16 03:29:28;;;;;;;37.00;20.77;;;;;;;-144.73;100.00;54514.44;5001153;28;20040;-71
2023/04/16 03:31:53;;;;;;;40.92;20.13;;;;;;;-144.73;100.00;54522.63;5025789;28;20113;-71
2023/04/16 03:34:18;;;;;;;37.08;21.00;;;;;;;-144.73;100.00;54520.59;5006313;28;20029;-71
2023/04/16 03:36:44;;;;;;;36.63;20.73;;;;;;;-144.73;100.00;54493.91;5001929;28;20042;-72
2023/04/16 03:39:09;;;;;;;39.83;19.75;;;;;;;-144.73;100.00;54530.84;5021877;28;20048;-72
2023/04/16 03:41:35;;;;;;;36.97;20.58;;;;;;;-144.73;100.00;54506.22;5023520;28;20029;-72
2023/04/16 03:44:00;;;;;;;41.38;22.17;;;;;;;-144.73;100.00;54522.63;5026691;28;20029;-72
2023/04/16 03:46:25;;;;;;;37.25;20.98;;;;;;;-144.73;100.00;54530.84;5003148;28;20030;-72
2023/04/16 03:48:50;;;;;;;38.40;20.90;;;;;;;-144.73;100.00;54530.84;5000534;28;20167;-72
2023/04/16 03:51:16;;;;;;;45.45;22.05;;;;;;;-144.73;100.00;54522.63;5019254;28;20056;-72
2023/04/16 03:53:41;;;;;;;38.47;20.85;;;;;;;-144.73;100.00;54502.13;5001665;28;20029;-73
2023/04/16 03:56:07;;;;;;;42.13;23.27;;;;;;;-144.73;100.00;54485.69;5024063;28;20038;-71
2023/04/16 03:58:32;;;;;;;43.08;22.55;;;;;;;-144.73;100.00;54495.97;4995496;28;20022;-71
2023/04/16 04:00:57;;;;;;;38.72;23.27;;;;;;;-144.73;100.00;54481.59;4995199;28;20057;-72
2023/04/16 04:03:23;;;;;;;39.90;22.48;;;;;;;-144.73;100.00;54477.47;5011447;28;20022;-72
2023/04/16 04:05:48;;;;;;;40.28;21.95;;;;;;;-144.73;100.00;54518.53;4993593;28;20044;-72
2023/04/16 04:08:13;;;;;;;39.03;22.83;;;;;;;-144.73;100.00;54473.38;4993232;28;20037;-72
2023/04/16 04:10:39;;;;;;;37.45;22.08;;;;;;;-144.73;100.00;54506.22;4998121;28;20133;-72
2023/04/16 04:13:05;;;;;;;47.08;25.33;;;;;;;-144.73;100.00;54543.16;5005002;28;20026;-73
2023/04/16 04:15:31;;;;;;;41.00;25.15;;;;;;;-144.73;100.00;54493.91;5004992;28;20034;-72
2023/04/16 04:17:56;;;;;;;42.30;23.67;;;;;;;-144.73;100.00;54514.44;5029246;28;20020;-73
2023/04/16 04:20:22;;;;;;;46.55;24.02;;;;;;;-144.73;100.00;54498.00;4995296;28;20075;-73
2023/04/16 04:22:49;;;;;;;37.75;22.95;;;;;;;-144.73;100.00;54498.00;5003210;28;20033;-73
2023/04/16 04:25:15;;;;;;;44.78;25.55;;;;;;;-144.73;100.00;54506.22;4997649;28;20035;-72
2023/04/16 04:27:40;;;;;;;41.75;23.77;;;;;;;-144.73;100.00;54498.00;5009609;28;20040;-72
2023/04/16 04:30:06;;;;;;;41.05;23.30;;;;;;;-144.73;100.00;54518.53;5015038;28;20030;-72
2023/04/16 04:32:32;;;;;;;44.90;25.98;;;;;;;-144.73;100.00;54539.06;5002200;28;20029;-72
2023/04/16 04:35:00;;;;;;;41.83;23.83;;;;;;;-144.73;100.00;54498.00;4999559;28;20033;-72
2023/04/16 04:37:25;;;;;;;41.22;25.27;;;;;;;-144.73;100.00;54502.13;5016069;28;20025;-73
2023/04/16 04:39:51;;;;;;;40.85;23.98;;;;;;;-144.73;100.00;54539.06;5001298;28;20454;-72
2023/04/16 04:42:17;;;;;;;48.92;26.25;;;;;;;-144.73;100.00;54512.38;5027455;28;20037;-72
2023/04/16 04:44:43;;;;;;;46.78;25.85;;;;;;;-144.73;100.00;54530.84;5020396;28;20109;-72
2023/04/16 04:47:08;;;;;;;40.60;24.58;;;;;;;-144.73;100.00;54491.84;5003612;28;20052;-72
2023/04/16 04:49:33;;;;;;;41.92;25.13;;;;;;;-144.73;100.00;54485.69;4994433;28;20034;-72
2023/04/16 04:52:00;;;;;;;49.85;25.25;;;;;;;-144.73;100.00;54487.75;4994480;28;20033;-72
2023/04/16 04:54:26;;;;;;;43.53;23.73;;;;;;;-144.73;100.00;54481.59;5012082;28;20065;-72
2023/04/16 04:56:52;;;;;;;43.33;24.70;;;;;;;-144.73;100.00;54495.97;5011097;28;20041;-72
2023/04/16 04:59:19;;;;;;;42.55;23.80;;;;;;;-144.73;100.00;54463.13;5003151;28;20022;-72
2023/04/16 05:01:44;;;;;;;54.03;25.98;;;;;;;-144.73;100.00;54508.28;5008546;28;20091;-72
2023/04/16 05:04:09;;;;;;;50.42;24.85;;;;;;;-144.73;100.00;54502.13;5003282;28;20101;-73
2023/04/16 05:06:35;;;;;;;40.08;22.80;;;;;;;-144.73;100.00;54522.63;5018882;28;20030;-71
2023/04/16 05:09:00;;;;;;;44.72;24.25;;;;;;;-144.73;100.00;54522.63;5022140;28;20019;-71
2023/04/16 05:11:26;;;;;;;39.53;23.58;;;;;;;-144.73;100.00;54514.44;5014191;28;20042;-71
2023/04/16 05:13:51;;;;;;;48.60;25.50;;;;;;;-144.73;100.00;54543.16;4995174;28;20028;-73
2023/04/16 05:16:16;;;;;;;42.95;22.35;;;;;;;-144.73;100.00;54539.06;5000827;28;20038;-72
2023/04/16 05:18:42;;;;;;;39.70;23.25;;;;;;;-144.73;100.00;54489.81;5004371;28;20042;-72
2023/04/16 05:21:07;;;;;;;46.55;23.42;;;;;;;-144.73;100.00;54528.81;5000738;28;20038;-72
2023/04/16 05:23:32;;;;;;;40.10;22.52;;;;;;;-144.73;100.00;54514.44;5024418;28;20032;-72
2023/04/16 05:25:58;;;;;;;38.03;22.58;;;;;;;-144.73;100.00;54539.06;5005143;28;20033;-71
2023/04/16 05:28:23;;;;;;;40.47;23.25;;;;;;;-144.73;100.00;54567.81;5013874;28;20423;-71
2023/04/16 05:30:48;;;;;;;42.40;23.55;;;;;;;-144.73;100.00;54489.81;5026513;28;20121;-71
2023/04/16 05:33:14;;;;;;;40.92;23.10;;;;;;;-144.73;100.00;54481.59;4994248;28;20105;-70
2023/04/16 05:35:39;;;;;;;39.85;23.38;;;;;;;-144.73;100.00;54539.06;5010130;28;20037;-71
2023/04/16 05:38:04;;;;;;;49.43;24.87;;;;;;;-144.73;100.00;54543.16;4993679;28;20164;-71
2023/04/16 05:40:30;;;;;;;46.13;23.85;;;;;;;-144.73;100.00;54518.53;5000109;28;20034;-72
2023/04/16 05:42:55;;;;;;;43.58;24.23;;;;;;;-144.73;100.00;54522.63;5017610;28;20021;-71
2023/04/16 05:45:21;;;;;;;44.70;24.63;;;;;;;-144.73;100.00;54510.31;5026128;28;20500;-73
2023/04/16 05:47:46;;;;;;;36.90;23.45;;;;;;;-144.73;100.00;54493.91;4991709;28;20022;-72
2023/04/16 05:50:11;;;;;;;43.90;23.85;;;;;;;-144.73;100.00;54539.06;5012258;28;20065;-72
2023/04/16 05:52:37;;;;;;;42.60;23.23;;;;;;;-144.73;100.00;54469.28;5008968;28;20029;-72
2023/04/16 05:55:03;;;;;;;42.53;23.25;;;;;;;-144.73;100.00;54461.06;5001231;28;20117;-72
2023/04/16 05:57:28;;;;;;;40.13;23.73;;;;;;;-144.73;100.00;54481.59;5012554;28;20040;-73
2023/04/16 05:59:54;;;;;;;43.75;23.65;;;;;;;-144.73;100.00;54493.91;5009674;28;20022;-72
2023/04/16 06:02:19;;;;;;;44.05;26.00;;;;;;;-144.73;100.00;54456.97;5010842;28;20021;-71
2023/04/16 06:04:45;;;;;;;54.17;23.50;;;;;;;-144.73;100.00;54481.59;5014547;28;20036;-72
2023/04/16 06:07:10;;;;;;;43.28;23.77;;;;;;;-144.73;100.00;54489.81;5006692;28;20064;-72
2023/04/16 06:09:36;;;;;;;48.88;24.60;;;;;;;-144.73;100.00;54493.91;4998119;28;20022;-72
2023/04/16 06:12:01;;;;;;;37.30;23.15;;;;;;;-144.73;100.00;54522.63;5002990;28;20026;-71
2023/04/16 06:14:26;;;;;;;46.47;25.17;;;;;;;-144.73;100.00;54493.91;5009022;28;20480;-72
2023/04/16 06:16:52;;;;;;;47.45;26.42;;;;;;;-144.73;100.00;54477.47;5018550;28;20041;-71
2023/04/16 06:19:17;;;;;;;42.67;23.30;;;;;;;-144.73;100.00;54498.00;5003705;28;20029;-72
2023/04/16 06:21:43;;;;;;;43.30;23.73;;;;;;;-144.73;100.00;54485.69;5024282;28;20034;-71
2023/04/16 06:24:08;;;;;;;42.50;24.17;;;;;;;-144.73;100.00;54508.28;5007502;28;20018;-71
2023/04/16 06:26:33;;;;;;;39.75;24.02;;;;;;;-144.73;100.00;54504.16;5007960;28;20041;-71
2023/04/16 06:28:59;;;;;;;45.65;24.10;;;;;;;-144.73;100.00;54510.31;5019285;28;20059;-71
2023/04/16 06:31:25;;;;;;;46.08;24.35;;;;;;;-144.73;100.00;54514.44;5002339;28;20040;-68
2023/04/16 06:33:50;;;;;;;48.42;25.58;;;;;;;-144.73;100.00;54506.22;5014275;28;20022;-69
2023/04/16 06:36:16;;;;;;;38.67;24.23;;;;;;;-144.73;100.00;54512.38;5015977;28;20034;-69
2023/04/16 06:38:41;;;;;;;42.33;24.48;;;;;;;-144.73;100.00;54559.59;4998037;28;20071;-67
2023/04/16 06:41:07;;;;;;;40.35;23.92;;;;;;;-144.73;100.00;54518.53;4997612;28;20053;-70
2023/04/16 06:43:32;;;;;;;46.22;23.90;;;;;;;-144.73;100.00;54498.00;4997213;28;20060;-68
2023/04/16 06:45:58;;;;;;;43.05;25.48;;;;;;;-144.73;100.00;54543.16;4996402;28;20043;-67
2023/04/16 06:48:24;;;;;;;41.65;24.65;;;;;;;-144.73;100.00;54493.91;5018665;28;20020;-68
2023/04/16 06:50:49;;;;;;;43.72;25.33;;;;;;;-144.73;100.00;54477.47;5027554;28;20033;-69
2023/04/16 06:53:15;;;;;;;47.13;23.67;;;;;;;-144.73;100.00;54489.81;5001729;28;20045;-67
2023/04/16 06:55:40;;;;;;;46.28;24.10;;;;;;;-144.73;100.00;54522.63;5009369;28;20026;-69
2023/04/16 06:58:06;;;;;;;36.00;23.15;;;;;;;-144.73;100.00;54506.22;4997336;28;20026;-69
2023/04/16 07:00:31;;;;;;;42.10;24.70;;;;;;;-144.73;100.00;54506.22;4993873;28;20030;-69
2023/04/16 07:02:58;;;;;;;44.70;23.80;;;;;;;-144.73;100.00;54514.44;4997238;28;20029;-69
2023/04/16 07:05:25;;;;;;;44.67;22.92;;;;;;;-144.73;100.00;54506.22;4994583;28;20034;-68
2023/04/16 07:07:50;;;;;;;41.53;23.08;;;;;;;-144.73;100.00;54526.75;5029755;28;20040;-68
2023/04/16 07:10:15;;;;;;;39.88;22.08;;;;;;;-144.73;100.00;54477.47;5003478;28;20045;-67
2023/04/16 07:12:41;;;;;;;36.45;22.73;;;;;;;-144.73;100.00;54518.53;5021058;28;20018;-69
2023/04/16 07:15:06;;;;;;;44.97;24.60;;;;;;;-144.73;100.00;54493.91;5014537;28;20030;-69
2023/04/16 07:17:32;;;;;;;33.85;20.67;;;;;;;-144.73;100.00;54498.00;5016663;28;20080;-69
2023/04/16 07:19:57;;;;;;;49.53;23.67;;;;;;;-144.73;100.00;54481.59;5029915;28;20025;-69
2023/04/16 07:22:22;;;;;;;41.88;22.55;;;;;;;-144.73;100.00;54530.84;5001250;28;20397;-68
2023/04/16 07:24:48;;;;;;;39.80;22.48;;;;;;;-144.73;100.00;54514.44;5024459;28;20022;-69
2023/04/16 07:27:13;;;;;;;43.72;25.05;;;;;;;-144.73;100.00;54506.22;4993616;28;20026;-69
2023/04/16 07:29:38;;;;;;;49.25;23.90;;;;;;;-144.73;100.00;54510.31;5016845;28;20093;-68
2023/04/16 07:32:04;;;;;;;43.30;22.58;;;;;;;-144.73;100.00;54508.28;5008297;28;20040;-69
2023/04/16 07:34:29;;;;;;;43.25;23.45;;;;;;;-144.73;100.00;54514.44;5015713;28;20053;-68
2023/04/16 07:36:55;;;;;;;37.63;22.88;;;;;;;-144.73;100.00;54502.13;5021732;28;20040;-69
2023/04/16 07:39:21;;;;;;;45.10;22.38;;;;;;;-144.73;100.00;54514.44;5026996;28;20032;-69
2023/04/16 07:41:46;;;;;;;39.08;22.27;;;;;;;-144.73;100.00;54498.00;5004240;28;20401;-69
2023/04/16 07:44:12;;;;;;;44.25;22.30;;;;;;;-144.73;100.00;54481.59;5025495;28;20037;-69
2023/04/16 07:46:37;;;;;;;43.55;19.98;;;;;;;-144.73;100.00;54498.00;5021466;28;20037;-70
2023/04/16 07:49:02;;;;;;;36.88;22.33;;;;;;;-144.73;100.00;54502.13;4981509;28;1130542;-69
2023/04/16 07:51:28;;;;;;;40.15;20.48;;;;;;;-144.73;100.00;54520.59;4993176;28;20042;-68
2023/04/16 07:53:57;;;;;;;35.25;20.92;;;;;;;-144.73;100.00;54479.53;5000240;28;20044;-69
2023/04/16 07:56:22;;;;;;;43.97;20.98;;;;;;;-144.73;100.00;54518.53;4997490;28;20049;-69
2023/04/16 07:58:47;;;;;;;37.25;21.45;;;;;;;-144.73;100.00;54543.16;4993124;28;20026;-69
2023/04/16 08:01:13;;;;;;;38.95;20.58;;;;;;;-144.73;100.00;54522.63;4996031;28;20048;-69
2023/04/16 08:03:42;;;;;;;36.83;20.33;;;;;;;-144.73;100.00;54518.53;5028170;28;20022;-69
2023/04/16 08:06:07;;;;;;;33.60;19.35;;;;;;;-144.73;100.00;54524.69;5012436;28;20038;-68
2023/04/16 08:08:33;;;;;;;31.63;19.00;;;;;;;-144.73;100.00;54508.28;4996614;28;20030;-69
2023/04/16 08:10:58;;;;;;;36.55;21.33;;;;;;;-144.73;100.00;54493.91;4994607;28;20103;-69
2023/04/16 08:13:24;;;;;;;44.97;19.92;;;;;;;-144.73;100.00;54489.81;4998132;28;20439;-68
2023/04/16 08:15:50;;;;;;;32.90;20.25;;;;;;;-144.73;100.00;54461.06;5017718;28;20093;-68
2023/04/16 08:18:15;;;;;;;50.40;20.02;;;;;;;-144.73;100.00;54510.31;4996965;28;20022;-69
2023/04/16 08:20:41;;;;;;;37.53;19.00;;;;;;;-144.73;100.00;54526.75;5031083;28;20490;-69
2023/04/16 08:23:06;;;;;;;34.05;19.05;;;;;;;-144.73;100.00;54514.44;5029715;28;20040;-69
2023/04/16 08:25:32;;;;;;;40.03;19.90;;;;;;;-144.73;100.00;54498.00;4995593;28;20061;-69
2023/04/16 08:27:57;;;;;;;30.30;18.73;;;;;;;-144.73;100.00;54498.00;4995173;28;20033;-69
2023/04/16 08:30:22;;;;;;;32.58;18.92;;;;;;;-144.73;100.00;54518.53;5013904;28;20045;-69
2023/04/16 08:32:48;;;;;;;29.88;18.65;;;;;;;-144.73;100.00;54543.16;5020088;28;20026;-69
2023/04/16 08:35:14;;;;;;;36.92;18.67;;;;;;;-144.73;100.00;54506.22;5004449;28;20052;-69
2023/04/16 08:37:39;;;;;;;29.77;20.17;;;;;;;-144.73;100.00;54524.69;5024097;28;20033;-70
2023/04/16 08:40:06;;;;;;;37.20;21.50;;;;;;;-144.73;100.00;54506.22;4999869;28;20042;-69
2023/04/16 08:42:36;;;;;;;30.05;18.42;;;;;;;-144.73;100.00;54498.00;5001487;28;20038;-69
2023/04/16 08:45:13;;;;;;;32.63;19.25;;;;;;;-144.73;100.00;54465.16;5001680;28;20029;-69
2023/04/16 08:47:40;;;;;;;28.73;17.63;;;;;;;-144.73;100.00;54481.59;5000067;28;20048;-69
2023/04/16 08:50:10;;;;;;;30.08;18.38;;;;;;;-144.73;100.00;54506.22;5000404;28;20108;-69
2023/04/16 08:52:41;;;;;;;32.88;18.52;;;;;;;-144.73;100.00;54510.31;5000208;28;20033;-69
2023/04/16 08:55:15;;;;;;;30.67;18.42;;;;;;;-144.73;100.00;54539.06;5000107;28;20037;-69
2023/04/16 08:57:47;;;;;;;34.25;18.35;;;;;;;-144.73;100.00;54465.16;5004237;28;20026;-69
2023/04/16 09:00:14;;;;;;;31.15;18.00;;;;;;;-144.73;100.00;54514.44;4997793;28;20041;-69
2023/04/16 09:02:41;;;;;;;31.55;18.05;;;;;;;-144.73;100.00;54502.13;5004359;28;20084;-69
2023/04/16 09:05:09;;;;;;;29.25;16.83;;;;;;;-144.73;100.00;54547.28;5001861;28;20048;-69
2023/04/16 09:07:35;;;;;;;32.88;18.48;;;;;;;-144.73;99.98;54489.81;4999613;28;20061;-68
2023/04/16 09:10:00;;;;;;;39.53;19.20;;;;;;;-144.73;99.94;54498.00;5001281;28;20013;-68
2023/04/16 09:12:26;;;;;;;35.55;18.25;;;;;;;-144.73;100.00;54506.22;4999064;28;20029;-68
2023/04/16 09:14:52;;;;;;;35.75;18.60;;;;;;;-144.73;100.00;54526.75;4988599;28;20067;-69
2023/04/16 09:17:18;;;;;;;31.13;18.17;;;;;;;-144.73;99.78;54485.69;5019303;28;20449;-68
2023/04/16 09:19:46;;;;;;;29.63;17.98;;;;;;;-144.73;99.45;54473.38;5000219;28;20026;-67
2023/04/16 09:22:12;;;;;;;28.77;17.55;;;;;;;-144.73;99.47;54485.69;5002243;28;20161;-67
2023/04/16 09:24:37;;;;;;;29.88;17.73;;;;;;;-144.73;100.00;54452.84;5008709;28;20045;-68
2023/04/16 09:27:03;;;;;;;31.13;18.08;;;;;;;-144.73;100.00;54518.53;5009682;28;20145;-70
2023/04/16 09:29:40;;;;;;;28.27;17.58;;;;;;;-144.73;98.89;54493.91;4993967;28;20018;-69
2023/04/16 09:32:08;;;;;;;29.20;16.45;;;;;;;-144.73;97.82;54506.22;4997938;28;20030;-68
2023/04/16 09:34:34;;;;;;;30.70;17.60;;;;;;;-144.73;97.52;54522.63;4995970;28;20037;-68
2023/04/16 09:37:16;;;;;;;31.20;17.58;;;;;;;-144.73;97.70;54498.00;5003059;28;20113;-68
2023/04/16 09:39:42;;;;;;;27.30;17.38;;;;;;;-144.73;98.70;54518.53;4996437;28;20018;-68
2023/04/16 09:42:09;;;;;;;31.83;17.60;;;;;;;-144.73;98.12;54485.69;5011738;28;20096;-68
2023/04/16 09:44:37;;;;;;;34.53;16.50;;;;;;;-144.73;97.03;54485.69;5004575;28;20018;-69
2023/04/16 09:47:08;;;;;;;31.85;16.50;;;;;;;-144.73;96.99;54506.22;4998242;28;20037;-70
2023/04/16 09:49:39;;;;;;;30.33;17.33;;;;;;;-144.73;97.04;54502.13;4992135;28;20029;-69
2023/04/16 09:52:13;;;;;;;29.25;16.10;;;;;;;-144.73;96.82;54489.81;4992969;28;20034;-69
2023/04/16 09:54:45;;;;;;;27.75;15.95;;;;;;;-144.73;96.63;54514.44;4996687;28;20025;-69
2023/04/16 09:57:11;;;;;;;26.08;16.70;;;;;;;-144.73;97.14;54481.59;4994052;28;20105;-69
2023/04/16 09:59:36;;;;;;;28.75;16.58;;;;;;;-144.73;97.46;54493.91;5002405;28;20045;-69
2023/04/16 10:02:02;;;;;;;24.95;15.57;;;;;;;-144.73;97.14;54514.44;5016430;28;20050;-69
2023/04/16 10:04:27;;;;;;;29.33;15.63;;;;;;;-144.73;97.48;54491.84;5003662;28;20109;-68
2023/04/16 10:07:03;;;;;;;31.40;16.58;;;;;;;-144.73;97.24;54518.53;5000048;28;20038;-69
2023/04/16 10:09:39;;;;;;;27.52;16.23;;;;;;;-144.73;98.29;54518.53;5008129;28;20441;-68
2023/04/16 10:12:05;;;;;;;27.58;15.60;;;;;;;-144.73;97.62;54510.31;5004627;28;20033;-68
2023/04/16 10:14:31;;;;;;;30.05;16.63;;;;;;;-144.73;97.16;54498.00;5002828;28;20040;-69
2023/04/16 10:16:57;;;;;;;25.75;15.65;;;;;;;-144.73;96.06;54493.91;5006594;28;20105;-68
2023/04/16 10:19:26;;;;;;;29.95;16.75;;;;;;;-144.73;95.93;54461.06;4997351;28;20018;-68
2023/04/16 10:21:53;;;;;;;35.70;16.25;;;;;;;-144.73;96.22;54465.16;4996185;28;20025;-69
2023/04/16 10:24:19;;;;;;;26.33;15.95;;;;;;;-144.73;96.00;54518.53;5012866;28;20037;-68
2023/04/16 10:26:46;;;;;;;22.90;14.00;;;;;;;-144.73;96.33;54498.00;4996383;28;20037;-68
2023/04/16 10:29:12;;;;;;;26.25;15.23;;;;;;;-144.73;96.21;54461.06;4997634;28;20137;-68
2023/04/16 10:31:39;;;;;;;23.17;14.90;;;;;;;-144.73;95.75;54498.00;5005345;28;20076;-69
2023/04/16 10:34:07;;;;;;;27.40;16.33;;;;;;;-144.73;95.23;54477.47;5003001;28;20018;-69
2023/04/16 10:36:36;;;;;;;26.90;15.88;;;;;;;-144.73;94.82;54485.69;5003380;28;20037;-69
2023/04/16 10:39:02;;;;;;;25.52;14.52;;;;;;;-144.73;94.63;54491.84;4999689;28;20029;-68
2023/04/16 10:41:27;;;;;;;24.75;14.20;;;;;;;-144.73;94.41;54477.47;4999227;28;20121;-68
2023/04/16 10:44:04;;;;;;;24.52;13.40;;;;;;;-144.73;93.43;54485.69;4999458;28;20108;-69
2023/04/16 10:46:37;;;;;;;23.65;14.82;;;;;;;-144.73;93.27;54461.06;5003081;28;20088;-68
2023/04/16 10:49:24;;;;;;;30.27;14.80;;;;;;;-144.73;94.62;54510.31;5006757;28;20039;-68